Terminal Aerodrome Forecast
Issued by NWS Blacksburg, VA

Home | Current Version | Previous Version | Text Only | Print | Product List | Glossary On
Versions: 1 2 3 4 5 6 7 8 9 10 11 12 13 14 15 16 17 18 19 20 21 22 23 24 25 26 27 28 29 30 31 32 33 34 35 36 37 38 39 40 41 42 43 44 45 46 47 48
000
FTUS41 KRNK 010537
TAFDAN
TAF
KDAN 010537Z 0106/0206 00000KT 1/4SM FG VV001
     FM011200 06003KT 5SM BR BKN005
     FM011500 09003KT P6SM BKN007
     FM011700 07003KT P6SM BKN020
     FM011900 09003KT P6SM SCT030=

USA.gov is the U.S. government's official web portal to all federal, state and local government web resources and services.